Bali, Indonesia

7:36 AM WITA on 二月 27, 2017 (GMT +0800)
Ngurah Rai (Bali) Interna | | Change Station

高度 13 ft 8.75 °S, 115.17 °E | Updated 36 minutes ago

Partly Cloudy
所により曇
77 °F
体感気温 77 °F
4
風 変数 風 から 北北東

今日
高い -- | 低 -- °F
--% 降水確率
昨日
高い -- | 低 -- °F
Precip. -- インチ
気圧 29.80 インチ
視程 6.2 マイル
わずか 1700 ft
露点温度 72 °F
湿度 83%
降水 0.00 インチ
積雪深 利用不可。
6:23 AM 6:40 PM
新月, 0% visible
METAR WADD 262300Z 02003KT 360V060 9999 FEW017 25/22 Q1009
気圧 29.80 インチ
視程 6.2 マイル
わずか 1700 ft
露点温度 72 °F
湿度 83%
降水 0.00 インチ
積雪深 利用不可。
6:23 AM 6:40 PM
新月, 0% visible
METAR WADD 262300Z 02003KT 360V060 9999 FEW017 25/22 Q1009

Get Your Daily Forecast Email!

Thanks for signing up!

Be on the lookout for a verification email in your inbox.

You'll start receiving the daily forecast at 8 AM.

×

10-Day Weather Forecast

×

Almanac

天文

Feb. 27, 2017 入り
実時間
常用薄明
航海薄明
天文薄明
可視光の長さ
可照時間
Tomorrow will be .
, % of the Moon is Illuminated

今日の極値

Country Highs Country Lows

Community

WunderPhotos

Upload Photos

1,962,540 写真がアップロードされました!

WunderBlog® & News

Nearby

空気品質

  空気品質 大気質指数 汚染物質
Not available.

積雪深

Station Depth 高度

地震活動

Distance Mag. Time & Date
Minimum magnitude displayed is 2.5.

沿岸の水温

地名 気温

Stations

最寄りの気象観測所

観測所位置 温度 体感気温(寒さ) 露点温度 湿度 Precip. 高度 更新日時 タイプする